Portada
METAR-TAF:

METAR-TAF

Aeroports :

Changchun, Xina

latitud: 43-54N, longitud: 125-13E, altitud: 238 m

Observació

L'informe es va fer fa 1 hora i 9 minuts, a les 04:00 UTC
Vent 14 kt del Sud
Temperatura 0°C
Humitat 47%
Pressió 1016 hPa
Visibilitat 10 km o més
sense núvols per sota de 1500 mi sense presència de cumulonimbus.

METAR: ZYCC 230400Z 19007MPS CAVOK 00/M10 Q1016 NOSIG

Hora: 13:09 (05:09 UTC)

Pronòstic

L'informe es va fer fa 8 hores i 8 minuts, a les 21:01 UTC
Pronòstic vàlid del 23 a les 00 UTC al 23 a les 24 UTC
Vent 10 kt del Oest/Sud-Oest
Visibilitat: 6000 m

TAF: ZYCC 222101Z 2300/2324 24005MPS 6000 NSC TX03/2306Z TNM08/2321Z

Observacions i pronòstics meteorològics de més de 4000 aeroports (METAR i TAF).

Les estacions disponibles són els punts grocs i vermells al mapa.

Posi el ratolí al punt desitjat per veure el nom de l'estació.

Feu clic per veure les observacions i els pronòstics meteorològics.

Per canviar el mapa: feu clic els botons verds amb una creu de color negre per apropar; al botó verd amb un guió per allunyar la imatge; o en les fletxes verdes per a mapes adjacents.


METAR-TAF: